sensor_id;sensor_type;location;lat;lon;timestamp;pressure;altitude;pressure_sealevel;temperature;humidity
74327;BME280;62745;51.060;13.786;2022-11-13T00:01:42;101749.25;;;4.05;93.77
74327;BME280;62745;51.060;13.786;2022-11-13T00:04:07;101748.09;;;3.97;94.10
74327;BME280;62745;51.060;13.786;2022-11-13T00:06:32;101752.94;;;3.79;94.02
74327;BME280;62745;51.060;13.786;2022-11-13T00:08:57;101753.75;;;3.92;93.91
74327;BME280;62745;51.060;13.786;2022-11-13T00:11:23;101750.47;;;3.88;93.87
74327;BME280;62745;51.060;13.786;2022-11-13T00:13:48;101744.56;;;3.85;93.42
74327;BME280;62745;51.060;13.786;2022-11-13T00:16:16;101743.94;;;3.81;92.68
74327;BME280;62745;51.060;13.786;2022-11-13T00:18:42;101741.44;;;3.67;94.70
74327;BME280;62745;51.060;13.786;2022-11-13T00:21:12;101731.44;;;3.59;94.16
74327;BME280;62745;51.060;13.786;2022-11-13T00:23:38;101737.09;;;3.42;94.18
74327;BME280;62745;51.060;13.786;2022-11-13T00:26:08;101741.03;;;3.73;94.04
74327;BME280;62745;51.060;13.786;2022-11-13T00:28:37;101716.81;;;3.67;93.96
74327;BME280;62745;51.060;13.786;2022-11-13T00:31:07;101731.59;;;3.69;94.43
74327;BME280;62745;51.060;13.786;2022-11-13T00:33:32;101733.91;;;3.50;94.45
74327;BME280;62745;51.060;13.786;2022-11-13T00:36:09;101730.53;;;3.48;96.04
74327;BME280;62745;51.060;13.786;2022-11-13T00:38:37;101722.72;;;3.33;95.25
74327;BME280;62745;51.060;13.786;2022-11-13T00:41:02;101737.06;;;3.55;94.82
74327;BME280;62745;51.060;13.786;2022-11-13T00:43:30;101718.00;;;3.26;95.35
74327;BME280;62745;51.060;13.786;2022-11-13T00:45:58;101722.38;;;3.51;95.32
74327;BME280;62745;51.060;13.786;2022-11-13T00:48:24;101718.50;;;3.68;94.44
74327;BME280;62745;51.060;13.786;2022-11-13T00:50:49;101708.75;;;3.57;93.90
74327;BME280;62745;51.060;13.786;2022-11-13T00:53:15;101715.41;;;3.50;94.80
74327;BME280;62745;51.060;13.786;2022-11-13T00:55:42;101722.69;;;3.59;95.43
74327;BME280;62745;51.060;13.786;2022-11-13T00:58:07;101728.34;;;3.66;94.19
74327;BME280;62745;51.060;13.786;2022-11-13T01:00:33;101714.03;;;3.81;93.94
74327;BME280;62745;51.060;13.786;2022-11-13T01:03:07;101722.69;;;4.07;92.39
74327;BME280;62745;51.060;13.786;2022-11-13T01:05:37;101723.41;;;4.09;92.68
74327;BME280;62745;51.060;13.786;2022-11-13T01:08:03;101707.25;;;4.01;91.11
74327;BME280;62745;51.060;13.786;2022-11-13T01:10:28;101715.41;;;3.86;91.56
74327;BME280;62745;51.060;13.786;2022-11-13T01:12:57;101719.63;;;4.00;91.61
74327;BME280;62745;51.060;13.786;2022-11-13T01:15:23;101720.19;;;3.69;92.38
74327;BME280;62745;51.060;13.786;2022-11-13T01:17:48;101721.22;;;3.55;92.32
74327;BME280;62745;51.060;13.786;2022-11-13T01:20:14;101713.50;;;3.52;92.54
74327;BME280;62745;51.060;13.786;2022-11-13T01:22:39;101707.31;;;3.64;92.79
74327;BME280;62745;51.060;13.786;2022-11-13T01:25:05;101712.91;;;3.36;93.36
74327;BME280;62745;51.060;13.786;2022-11-13T01:27:31;101713.06;;;3.09;94.13
74327;BME280;62745;51.060;13.786;2022-11-13T01:29:56;101715.72;;;3.09;95.39
74327;BME280;62745;51.060;13.786;2022-11-13T01:32:21;101704.78;;;3.39;95.03
74327;BME280;62745;51.060;13.786;2022-11-13T01:34:47;101696.72;;;3.04;94.51
74327;BME280;62745;51.060;13.786;2022-11-13T01:37:12;101680.44;;;3.10;94.93
74327;BME280;62745;51.060;13.786;2022-11-13T01:39:37;101688.22;;;3.37;93.76
74327;BME280;62745;51.060;13.786;2022-11-13T01:42:03;101691.63;;;3.00;94.06
74327;BME280;62745;51.060;13.786;2022-11-13T01:44:51;101689.25;;;2.72;94.95
74327;BME280;62745;51.060;13.786;2022-11-13T01:47:18;101692.41;;;2.77;95.07
74327;BME280;62745;51.060;13.786;2022-11-13T01:49:45;101657.19;;;2.40;95.98
74327;BME280;62745;51.060;13.786;2022-11-13T01:52:26;101686.09;;;2.54;96.24
74327;BME280;62745;51.060;13.786;2022-11-13T01:54:56;101683.56;;;2.53;95.89
74327;BME280;62745;51.060;13.786;2022-11-13T01:57:23;101661.06;;;2.47;96.90
74327;BME280;62745;51.060;13.786;2022-11-13T01:59:55;101665.59;;;2.32;96.49
74327;BME280;62745;51.060;13.786;2022-11-13T02:02:22;101674.53;;;2.17;96.91
74327;BME280;62745;51.060;13.786;2022-11-13T02:04:48;101640.03;;;1.95;97.23
74327;BME280;62745;51.060;13.786;2022-11-13T02:07:15;101668.53;;;2.02;97.67
74327;BME280;62745;51.060;13.786;2022-11-13T02:09:43;101653.31;;;1.93;97.94
74327;BME280;62745;51.060;13.786;2022-11-13T02:12:13;101667.56;;;2.03;98.36
74327;BME280;62745;51.060;13.786;2022-11-13T02:14:51;101664.28;;;1.87;97.93
74327;BME280;62745;51.060;13.786;2022-11-13T02:17:29;101648.53;;;1.73;98.00
74327;BME280;62745;51.060;13.786;2022-11-13T02:19:58;101657.69;;;1.80;97.61
74327;BME280;62745;51.060;13.786;2022-11-13T02:22:49;101659.22;;;1.97;97.89
74327;BME280;62745;51.060;13.786;2022-11-13T02:25:16;101664.56;;;1.83;97.93
74327;BME280;62745;51.060;13.786;2022-11-13T02:27:45;101656.56;;;1.57;97.46
74327;BME280;62745;51.060;13.786;2022-11-13T02:30:27;101661.03;;;1.42;97.86
74327;BME280;62745;51.060;13.786;2022-11-13T02:32:53;101660.31;;;1.40;97.87
74327;BME280;62745;51.060;13.786;2022-11-13T02:35:22;101654.00;;;1.83;97.40
74327;BME280;62745;51.060;13.786;2022-11-13T02:37:48;101655.00;;;1.55;96.81
74327;BME280;62745;51.060;13.786;2022-11-13T02:40:14;101644.50;;;1.40;96.95
74327;BME280;62745;51.060;13.786;2022-11-13T02:42:40;101658.06;;;1.61;97.66
74327;BME280;62745;51.060;13.786;2022-11-13T02:45:05;101656.81;;;1.67;96.57
74327;BME280;62745;51.060;13.786;2022-11-13T02:47:31;101661.34;;;1.38;96.81
74327;BME280;62745;51.060;13.786;2022-11-13T02:49:57;101656.00;;;1.25;97.08
74327;BME280;62745;51.060;13.786;2022-11-13T02:52:22;101647.91;;;1.28;97.72
74327;BME280;62745;51.060;13.786;2022-11-13T02:54:47;101651.41;;;1.14;97.93
74327;BME280;62745;51.060;13.786;2022-11-13T02:57:13;101646.44;;;1.24;98.19
74327;BME280;62745;51.060;13.786;2022-11-13T02:59:39;101642.31;;;1.47;97.33
74327;BME280;62745;51.060;13.786;2022-11-13T03:02:04;101642.56;;;1.57;95.12
74327;BME280;62745;51.060;13.786;2022-11-13T03:04:29;101641.84;;;1.67;95.16
74327;BME280;62745;51.060;13.786;2022-11-13T03:06:54;101641.09;;;1.92;94.35
74327;BME280;62745;51.060;13.786;2022-11-13T03:09:20;101624.78;;;2.13;93.40
74327;BME280;62745;51.060;13.786;2022-11-13T03:11:45;101630.56;;;2.05;92.58
74327;BME280;62745;51.060;13.786;2022-11-13T03:14:10;101619.91;;;1.94;92.81
74327;BME280;62745;51.060;13.786;2022-11-13T03:16:35;101613.47;;;1.98;91.41
74327;BME280;62745;51.060;13.786;2022-11-13T03:19:02;101621.41;;;2.23;90.65
74327;BME280;62745;51.060;13.786;2022-11-13T03:21:27;101625.00;;;2.22;91.15
74327;BME280;62745;51.060;13.786;2022-11-13T03:23:53;101627.34;;;1.74;90.60
74327;BME280;62745;51.060;13.786;2022-11-13T03:26:19;101626.28;;;1.37;93.29
74327;BME280;62745;51.060;13.786;2022-11-13T03:28:44;101629.38;;;1.30;92.66
74327;BME280;62745;51.060;13.786;2022-11-13T03:31:10;101632.63;;;1.20;93.31
74327;BME280;62745;51.060;13.786;2022-11-13T03:33:36;101612.13;;;0.84;94.42
74327;BME280;62745;51.060;13.786;2022-11-13T03:36:01;101612.34;;;1.62;94.13
74327;BME280;62745;51.060;13.786;2022-11-13T03:38:27;101599.75;;;1.80;92.92
74327;BME280;62745;51.060;13.786;2022-11-13T03:40:52;101622.13;;;2.00;92.47
74327;BME280;62745;51.060;13.786;2022-11-13T03:43:17;101612.50;;;1.73;91.50
74327;BME280;62745;51.060;13.786;2022-11-13T03:45:44;101619.06;;;1.54;91.36
74327;BME280;62745;51.060;13.786;2022-11-13T03:48:11;101601.72;;;1.10;92.09
74327;BME280;62745;51.060;13.786;2022-11-13T03:50:37;101612.31;;;1.23;95.06
74327;BME280;62745;51.060;13.786;2022-11-13T03:53:02;101619.31;;;0.95;92.91
74327;BME280;62745;51.060;13.786;2022-11-13T03:55:27;101615.47;;;1.28;93.94
74327;BME280;62745;51.060;13.786;2022-11-13T03:57:53;101610.59;;;1.36;91.79
74327;BME280;62745;51.060;13.786;2022-11-13T04:00:18;101607.06;;;1.23;93.51
74327;BME280;62745;51.060;13.786;2022-11-13T04:02:43;101618.50;;;0.80;93.22
74327;BME280;62745;51.060;13.786;2022-11-13T04:05:10;101616.91;;;0.78;94.32
74327;BME280;62745;51.060;13.786;2022-11-13T04:07:36;101609.06;;;1.05;93.03
74327;BME280;62745;51.060;13.786;2022-11-13T04:10:01;101606.09;;;0.82;93.02
74327;BME280;62745;51.060;13.786;2022-11-13T04:12:26;101611.34;;;0.82;93.75
74327;BME280;62745;51.060;13.786;2022-11-13T04:14:51;101600.81;;;0.82;94.04
74327;BME280;62745;51.060;13.786;2022-11-13T04:17:17;101605.13;;;0.83;93.61
74327;BME280;62745;51.060;13.786;2022-11-13T04:19:42;101589.59;;;0.52;94.09
74327;BME280;62745;51.060;13.786;2022-11-13T04:22:07;101602.66;;;0.68;94.64
74327;BME280;62745;51.060;13.786;2022-11-13T04:24:32;101597.94;;;0.58;94.32
74327;BME280;62745;51.060;13.786;2022-11-13T04:26:58;101593.34;;;0.62;94.57
74327;BME280;62745;51.060;13.786;2022-11-13T04:29:23;101590.63;;;0.64;95.52
74327;BME280;62745;51.060;13.786;2022-11-13T04:31:48;101589.50;;;0.53;95.32
74327;BME280;62745;51.060;13.786;2022-11-13T04:34:14;101578.13;;;1.08;95.55
74327;BME280;62745;51.060;13.786;2022-11-13T04:36:39;101585.22;;;0.94;94.04
74327;BME280;62745;51.060;13.786;2022-11-13T04:39:04;101575.88;;;0.75;94.08
74327;BME280;62745;51.060;13.786;2022-11-13T04:41:30;101579.25;;;0.63;95.83
74327;BME280;62745;51.060;13.786;2022-11-13T04:44:14;101575.44;;;0.40;95.42
74327;BME280;62745;51.060;13.786;2022-11-13T04:46:39;101576.25;;;0.69;96.30
74327;BME280;62745;51.060;13.786;2022-11-13T04:49:04;101580.56;;;0.70;96.09
74327;BME280;62745;51.060;13.786;2022-11-13T04:51:29;101577.47;;;0.64;97.79
74327;BME280;62745;51.060;13.786;2022-11-13T04:53:55;101577.41;;;0.51;97.59
74327;BME280;62745;51.060;13.786;2022-11-13T04:56:20;101578.50;;;0.47;98.52
74327;BME280;62745;51.060;13.786;2022-11-13T04:58:46;101563.41;;;0.22;97.80
74327;BME280;62745;51.060;13.786;2022-11-13T05:01:11;101571.50;;;0.19;98.15
74327;BME280;62745;51.060;13.786;2022-11-13T05:03:36;101553.56;;;0.25;98.05
74327;BME280;62745;51.060;13.786;2022-11-13T05:06:07;101545.47;;;0.43;97.04
74327;BME280;62745;51.060;13.786;2022-11-13T05:08:33;101555.69;;;0.47;96.47
74327;BME280;62745;51.060;13.786;2022-11-13T05:10:58;101557.69;;;0.29;96.33
74327;BME280;62745;51.060;13.786;2022-11-13T05:13:24;101547.00;;;0.18;97.03
74327;BME280;62745;51.060;13.786;2022-11-13T05:15:50;101557.41;;;0.20;97.18
74327;BME280;62745;51.060;13.786;2022-11-13T05:18:15;101558.06;;;0.38;97.06
74327;BME280;62745;51.060;13.786;2022-11-13T05:20:40;101553.25;;;0.30;97.43
74327;BME280;62745;51.060;13.786;2022-11-13T05:23:06;101554.00;;;0.46;97.06
74327;BME280;62745;51.060;13.786;2022-11-13T05:25:31;101558.91;;;0.24;96.24
74327;BME280;62745;51.060;13.786;2022-11-13T05:27:57;101545.00;;;0.08;97.20
74327;BME280;62745;51.060;13.786;2022-11-13T05:30:23;101537.59;;;0.14;97.39
74327;BME280;62745;51.060;13.786;2022-11-13T05:32:48;101540.13;;;0.16;97.92
74327;BME280;62745;51.060;13.786;2022-11-13T05:35:13;101534.22;;;0.26;97.80
74327;BME280;62745;51.060;13.786;2022-11-13T05:37:39;101528.00;;;0.42;98.30
74327;BME280;62745;51.060;13.786;2022-11-13T05:40:04;101532.97;;;0.32;97.80
74327;BME280;62745;51.060;13.786;2022-11-13T05:42:30;101525.78;;;0.21;97.41
74327;BME280;62745;51.060;13.786;2022-11-13T05:44:55;101528.75;;;0.15;97.91
74327;BME280;62745;51.060;13.786;2022-11-13T05:47:20;101524.38;;;0.02;97.96
74327;BME280;62745;51.060;13.786;2022-11-13T05:49:46;101528.59;;;-0.10;98.45
74327;BME280;62745;51.060;13.786;2022-11-13T05:52:11;101512.06;;;-0.12;98.93
74327;BME280;62745;51.060;13.786;2022-11-13T05:54:36;101515.16;;;0.09;98.92
74327;BME280;62745;51.060;13.786;2022-11-13T05:57:01;101533.16;;;0.43;96.77
74327;BME280;62745;51.060;13.786;2022-11-13T05:59:27;101527.00;;;0.85;95.39
74327;BME280;62745;51.060;13.786;2022-11-13T06:01:52;101535.38;;;0.78;94.70
74327;BME280;62745;51.060;13.786;2022-11-13T06:04:17;101536.97;;;0.80;94.86
74327;BME280;62745;51.060;13.786;2022-11-13T06:06:42;101514.38;;;0.49;94.61
74327;BME280;62745;51.060;13.786;2022-11-13T06:09:08;101536.72;;;0.56;95.54
74327;BME280;62745;51.060;13.786;2022-11-13T06:11:34;101525.94;;;0.47;95.03
74327;BME280;62745;51.060;13.786;2022-11-13T06:13:59;101524.94;;;0.76;96.20
74327;BME280;62745;51.060;13.786;2022-11-13T06:16:28;101524.88;;;0.64;94.06
74327;BME280;62745;51.060;13.786;2022-11-13T06:18:58;101527.25;;;0.68;95.58
74327;BME280;62745;51.060;13.786;2022-11-13T06:21:26;101527.41;;;1.06;93.68
74327;BME280;62745;51.060;13.786;2022-11-13T06:23:51;101525.88;;;1.29;93.52
74327;BME280;62745;51.060;13.786;2022-11-13T06:26:20;101524.81;;;1.19;93.07
74327;BME280;62745;51.060;13.786;2022-11-13T06:28:46;101532.25;;;1.12;93.15
74327;BME280;62745;51.060;13.786;2022-11-13T06:31:17;101526.72;;;1.30;93.66
74327;BME280;62745;51.060;13.786;2022-11-13T06:33:42;101529.97;;;0.94;92.52
74327;BME280;62745;51.060;13.786;2022-11-13T06:36:14;101531.66;;;0.68;92.52
74327;BME280;62745;51.060;13.786;2022-11-13T06:38:41;101526.22;;;0.83;92.93
74327;BME280;62745;51.060;13.786;2022-11-13T06:41:09;101531.44;;;0.71;93.45
74327;BME280;62745;51.060;13.786;2022-11-13T06:43:34;101525.03;;;0.89;93.85
74327;BME280;62745;51.060;13.786;2022-11-13T06:46:09;101531.50;;;1.10;92.38
74327;BME280;62745;51.060;13.786;2022-11-13T06:48:35;101532.16;;;1.14;92.02
74327;BME280;62745;51.060;13.786;2022-11-13T06:51:06;101524.06;;;0.90;92.00
74327;BME280;62745;51.060;13.786;2022-11-13T06:53:32;101532.47;;;1.09;92.34
74327;BME280;62745;51.060;13.786;2022-11-13T06:55:58;101542.56;;;1.15;92.29
74327;BME280;62745;51.060;13.786;2022-11-13T06:58:23;101533.94;;;1.13;93.72
74327;BME280;62745;51.060;13.786;2022-11-13T07:00:49;101523.34;;;1.01;93.49
74327;BME280;62745;51.060;13.786;2022-11-13T07:03:23;101528.03;;;1.10;93.29
74327;BME280;62745;51.060;13.786;2022-11-13T07:05:49;101537.31;;;1.15;92.66
74327;BME280;62745;51.060;13.786;2022-11-13T07:08:15;101524.78;;;1.46;92.09
74327;BME280;62745;51.060;13.786;2022-11-13T07:10:40;101519.28;;;1.49;91.73
74327;BME280;62745;51.060;13.786;2022-11-13T07:13:06;101519.78;;;1.29;92.79
74327;BME280;62745;51.060;13.786;2022-11-13T07:15:36;101531.28;;;1.40;91.98
74327;BME280;62745;51.060;13.786;2022-11-13T07:18:02;101523.13;;;1.18;92.35
74327;BME280;62745;51.060;13.786;2022-11-13T07:20:28;101524.38;;;1.52;92.64
74327;BME280;62745;51.060;13.786;2022-11-13T07:22:55;101524.81;;;1.59;91.66
74327;BME280;62745;51.060;13.786;2022-11-13T07:25:21;101527.09;;;1.50;91.83
74327;BME280;62745;51.060;13.786;2022-11-13T07:27:46;101521.84;;;1.63;91.21
74327;BME280;62745;51.060;13.786;2022-11-13T07:30:12;101510.88;;;1.44;92.58
74327;BME280;62745;51.060;13.786;2022-11-13T07:32:37;101524.56;;;1.36;92.84
74327;BME280;62745;51.060;13.786;2022-11-13T07:35:02;101517.81;;;1.45;93.36
74327;BME280;62745;51.060;13.786;2022-11-13T07:37:28;101522.06;;;1.60;93.59
74327;BME280;62745;51.060;13.786;2022-11-13T07:39:53;101514.75;;;1.51;92.99
74327;BME280;62745;51.060;13.786;2022-11-13T07:42:18;101525.88;;;1.69;93.23
74327;BME280;62745;51.060;13.786;2022-11-13T07:44:44;101513.94;;;1.63;93.75
74327;BME280;62745;51.060;13.786;2022-11-13T07:47:09;101517.13;;;1.81;93.93
74327;BME280;62745;51.060;13.786;2022-11-13T07:49:34;101510.47;;;2.01;92.50
74327;BME280;62745;51.060;13.786;2022-11-13T07:51:59;101511.22;;;2.16;93.04
74327;BME280;62745;51.060;13.786;2022-11-13T07:54:25;101514.25;;;2.35;92.02
74327;BME280;62745;51.060;13.786;2022-11-13T07:56:50;101515.91;;;2.49;92.90
74327;BME280;62745;51.060;13.786;2022-11-13T07:59:15;101511.78;;;2.57;91.80
74327;BME280;62745;51.060;13.786;2022-11-13T08:01:40;101505.72;;;2.68;91.97
74327;BME280;62745;51.060;13.786;2022-11-13T08:04:06;101505.91;;;2.78;92.37
74327;BME280;62745;51.060;13.786;2022-11-13T08:06:31;101500.97;;;2.97;91.55
74327;BME280;62745;51.060;13.786;2022-11-13T08:08:56;101493.06;;;2.97;92.05
74327;BME280;62745;51.060;13.786;2022-11-13T08:11:21;101488.44;;;3.12;91.94
74327;BME280;62745;51.060;13.786;2022-11-13T08:13:47;101488.94;;;3.41;90.53
74327;BME280;62745;51.060;13.786;2022-11-13T08:16:12;101499.56;;;3.74;89.67
74327;BME280;62745;51.060;13.786;2022-11-13T08:18:37;101495.75;;;3.89;89.63
74327;BME280;62745;51.060;13.786;2022-11-13T08:21:04;101497.19;;;3.93;89.50
74327;BME280;62745;51.060;13.786;2022-11-13T08:23:30;101492.41;;;4.10;89.31
74327;BME280;62745;51.060;13.786;2022-11-13T08:25:55;101483.63;;;4.20;88.99
74327;BME280;62745;51.060;13.786;2022-11-13T08:28:20;101491.09;;;4.38;88.59
74327;BME280;62745;51.060;13.786;2022-11-13T08:30:46;101473.88;;;4.43;88.62
74327;BME280;62745;51.060;13.786;2022-11-13T08:33:11;101488.72;;;4.67;88.03
74327;BME280;62745;51.060;13.786;2022-11-13T08:35:38;101491.69;;;4.84;87.52
74327;BME280;62745;51.060;13.786;2022-11-13T08:38:06;101485.63;;;5.05;86.11
74327;BME280;62745;51.060;13.786;2022-11-13T08:40:31;101475.13;;;5.35;85.00
74327;BME280;62745;51.060;13.786;2022-11-13T08:42:58;101485.34;;;5.40;84.71
74327;BME280;62745;51.060;13.786;2022-11-13T08:45:24;101482.63;;;5.51;84.82
74327;BME280;62745;51.060;13.786;2022-11-13T08:47:49;101485.22;;;5.62;84.17
74327;BME280;62745;51.060;13.786;2022-11-13T08:50:14;101496.13;;;6.11;83.09
74327;BME280;62745;51.060;13.786;2022-11-13T08:52:40;101490.97;;;6.09;81.99
74327;BME280;62745;51.060;13.786;2022-11-13T08:55:05;101485.44;;;6.22;82.00
74327;BME280;62745;51.060;13.786;2022-11-13T08:57:30;101477.22;;;6.34;82.20
74327;BME280;62745;51.060;13.786;2022-11-13T08:59:56;101467.50;;;6.45;80.62
74327;BME280;62745;51.060;13.786;2022-11-13T09:02:21;101475.75;;;6.51;80.90
74327;BME280;62745;51.060;13.786;2022-11-13T09:04:46;101452.44;;;6.64;79.99
74327;BME280;62745;51.060;13.786;2022-11-13T09:07:12;101472.84;;;6.64;79.26
74327;BME280;62745;51.060;13.786;2022-11-13T09:09:37;101467.88;;;6.90;79.09
74327;BME280;62745;51.060;13.786;2022-11-13T09:12:03;101477.94;;;7.06;78.60
74327;BME280;62745;51.060;13.786;2022-11-13T09:14:28;101475.16;;;7.27;78.10
74327;BME280;62745;51.060;13.786;2022-11-13T09:16:54;101472.03;;;7.50;77.17
74327;BME280;62745;51.060;13.786;2022-11-13T09:19:19;101466.69;;;7.70;76.52
74327;BME280;62745;51.060;13.786;2022-11-13T09:21:45;101471.53;;;7.94;75.16
74327;BME280;62745;51.060;13.786;2022-11-13T09:24:11;101462.81;;;8.01;74.42
74327;BME280;62745;51.060;13.786;2022-11-13T09:26:36;101463.56;;;8.21;74.62
74327;BME280;62745;51.060;13.786;2022-11-13T09:29:02;101467.44;;;8.36;73.34
74327;BME280;62745;51.060;13.786;2022-11-13T09:31:27;101459.75;;;8.61;72.30
74327;BME280;62745;51.060;13.786;2022-11-13T09:33:52;101464.72;;;8.73;70.96
74327;BME280;62745;51.060;13.786;2022-11-13T09:36:18;101459.59;;;8.62;71.59
74327;BME280;62745;51.060;13.786;2022-11-13T09:38:43;101457.41;;;8.76;71.53
74327;BME280;62745;51.060;13.786;2022-11-13T09:41:11;101465.94;;;8.79;70.34
74327;BME280;62745;51.060;13.786;2022-11-13T09:43:44;101464.34;;;8.86;71.38
74327;BME280;62745;51.060;13.786;2022-11-13T09:46:18;101452.53;;;8.89;70.55
74327;BME280;62745;51.060;13.786;2022-11-13T09:49:11;101460.63;;;8.97;70.17
74327;BME280;62745;51.060;13.786;2022-11-13T09:51:37;101451.41;;;9.09;70.31
74327;BME280;62745;51.060;13.786;2022-11-13T09:54:05;101459.31;;;9.19;69.88
74327;BME280;62745;51.060;13.786;2022-11-13T09:56:39;101455.59;;;9.29;69.40
74327;BME280;62745;51.060;13.786;2022-11-13T09:59:31;101451.81;;;9.58;68.98
74327;BME280;62745;51.060;13.786;2022-11-13T10:02:09;101456.38;;;10.00;68.17
74327;BME280;62745;51.060;13.786;2022-11-13T10:10:47;101448.78;;;10.55;66.32
74327;BME280;62745;51.060;13.786;2022-11-13T10:16:38;101436.06;;;10.41;66.70
74327;BME280;62745;51.060;13.786;2022-11-13T10:19:20;101444.97;;;10.58;66.46
74327;BME280;62745;51.060;13.786;2022-11-13T10:21:53;101441.50;;;10.65;66.40
74327;BME280;62745;51.060;13.786;2022-11-13T10:24:27;101432.34;;;10.84;66.64
74327;BME280;62745;51.060;13.786;2022-11-13T10:26:55;101427.84;;;10.93;65.95
74327;BME280;62745;51.060;13.786;2022-11-13T10:29:22;101428.34;;;10.96;65.13
74327;BME280;62745;51.060;13.786;2022-11-13T10:31:50;101415.81;;;11.05;65.07
74327;BME280;62745;51.060;13.786;2022-11-13T10:34:16;101413.16;;;11.29;64.12
74327;BME280;62745;51.060;13.786;2022-11-13T10:37:10;101410.63;;;11.36;64.33
74327;BME280;62745;51.060;13.786;2022-11-13T10:39:45;101408.75;;;11.53;63.21
74327;BME280;62745;51.060;13.786;2022-11-13T10:42:27;101411.63;;;11.59;62.64
74327;BME280;62745;51.060;13.786;2022-11-13T10:45:02;101412.41;;;11.68;62.45
74327;BME280;62745;51.060;13.786;2022-11-13T10:47:31;101407.19;;;11.74;62.53
74327;BME280;62745;51.060;13.786;2022-11-13T10:50:08;101395.03;;;11.56;64.18
74327;BME280;62745;51.060;13.786;2022-11-13T10:52:43;101396.50;;;11.83;63.73
74327;BME280;62745;51.060;13.786;2022-11-13T10:58:01;101390.03;;;12.70;59.36
74327;BME280;62745;51.060;13.786;2022-11-13T11:00:35;101382.94;;;12.54;58.40
74327;BME280;62745;51.060;13.786;2022-11-13T11:03:07;101387.75;;;12.36;59.48
74327;BME280;62745;51.060;13.786;2022-11-13T11:05:34;101379.16;;;12.41;59.83
74327;BME280;62745;51.060;13.786;2022-11-13T11:07:59;101378.56;;;11.91;61.59
74327;BME280;62745;51.060;13.786;2022-11-13T11:10:31;101382.84;;;12.40;59.99
74327;BME280;62745;51.060;13.786;2022-11-13T11:13:08;101373.72;;;12.57;59.48
74327;BME280;62745;51.060;13.786;2022-11-13T11:15:41;101372.03;;;12.56;59.78
74327;BME280;62745;51.060;13.786;2022-11-13T11:18:36;101366.94;;;12.69;59.68
74327;BME280;62745;51.060;13.786;2022-11-13T11:21:09;101352.91;;;13.05;58.01
74327;BME280;62745;51.060;13.786;2022-11-13T11:23:59;101359.41;;;13.10;57.85
74327;BME280;62745;51.060;13.786;2022-11-13T11:29:26;101338.31;;;12.84;57.32
74327;BME280;62745;51.060;13.786;2022-11-13T11:32:25;101324.63;;;12.79;57.79
74327;BME280;62745;51.060;13.786;2022-11-13T11:35:02;101329.75;;;12.66;58.40
74327;BME280;62745;51.060;13.786;2022-11-13T11:37:38;101334.31;;;13.03;57.71
74327;BME280;62745;51.060;13.786;2022-11-13T11:43:11;101322.25;;;12.84;58.05
74327;BME280;62745;51.060;13.786;2022-11-13T11:45:44;101331.03;;;12.93;56.83
74327;BME280;62745;51.060;13.786;2022-11-13T11:48:14;101325.13;;;13.35;55.85
74327;BME280;62745;51.060;13.786;2022-11-13T11:50:50;101330.41;;;13.58;55.71
74327;BME280;62745;51.060;13.786;2022-11-13T11:59:41;101316.13;;;13.87;54.70
74327;BME280;62745;51.060;13.786;2022-11-13T12:05:03;101302.69;;;14.81;51.62
74327;BME280;62745;51.060;13.786;2022-11-13T12:16:01;101306.72;;;15.95;48.20
74327;BME280;62745;51.060;13.786;2022-11-13T12:26:37;101298.97;;;15.72;48.61
74327;BME280;62745;51.060;13.786;2022-11-13T12:35:17;101279.28;;;16.39;47.30
74327;BME280;62745;51.060;13.786;2022-11-13T12:37:55;101292.16;;;16.50;46.80
74327;BME280;62745;51.060;13.786;2022-11-13T12:40:41;101274.97;;;17.04;45.63
74327;BME280;62745;51.060;13.786;2022-11-13T12:43:46;101259.78;;;17.10;45.87
74327;BME280;62745;51.060;13.786;2022-11-13T12:46:12;101272.22;;;16.45;46.79
74327;BME280;62745;51.060;13.786;2022-11-13T12:48:40;101278.63;;;16.24;47.21
74327;BME280;62745;51.060;13.786;2022-11-13T12:51:08;101284.31;;;16.69;45.91
74327;BME280;62745;51.060;13.786;2022-11-13T12:56:16;101280.81;;;16.81;46.01
74327;BME280;62745;51.060;13.786;2022-11-13T12:58:59;101282.03;;;17.05;45.57
74327;BME280;62745;51.060;13.786;2022-11-13T13:01:27;101272.69;;;16.68;46.03
74327;BME280;62745;51.060;13.786;2022-11-13T13:04:32;101253.38;;;16.91;45.71
74327;BME280;62745;51.060;13.786;2022-11-13T13:07:19;101269.13;;;17.21;45.04
74327;BME280;62745;51.060;13.786;2022-11-13T13:09:54;101261.66;;;17.09;45.06
74327;BME280;62745;51.060;13.786;2022-11-13T13:17:43;101263.94;;;17.19;44.87
74327;BME280;62745;51.060;13.786;2022-11-13T13:22:39;101253.13;;;17.19;45.00
74327;BME280;62745;51.060;13.786;2022-11-13T13:25:21;101255.44;;;17.16;45.16
74327;BME280;62745;51.060;13.786;2022-11-13T13:27:59;101242.81;;;17.61;43.87
74327;BME280;62745;51.060;13.786;2022-11-13T13:30:25;101247.34;;;17.02;45.82
74327;BME280;62745;51.060;13.786;2022-11-13T13:35:59;101244.63;;;17.16;45.19
74327;BME280;62745;51.060;13.786;2022-11-13T13:38:31;101250.25;;;17.01;45.20
74327;BME280;62745;51.060;13.786;2022-11-13T13:41:14;101238.84;;;17.63;44.41
74327;BME280;62745;51.060;13.786;2022-11-13T13:46:16;101225.81;;;17.54;44.20
74327;BME280;62745;51.060;13.786;2022-11-13T13:48:44;101218.22;;;17.24;45.02
74327;BME280;62745;51.060;13.786;2022-11-13T13:51:22;101224.06;;;17.14;45.44
74327;BME280;62745;51.060;13.786;2022-11-13T13:53:50;101216.22;;;16.73;46.56
74327;BME280;62745;51.060;13.786;2022-11-13T13:56:15;101214.34;;;16.34;47.51
74327;BME280;62745;51.060;13.786;2022-11-13T13:58:43;101222.22;;;16.22;48.57
74327;BME280;62745;51.060;13.786;2022-11-13T14:01:13;101223.34;;;15.74;49.25